sensor_id;sensor_type;location;lat;lon;timestamp;temperature;humidity
23669;DHT22;12011;47.422;15.018;2022-12-04T00:02:25;2.50;99.90
23669;DHT22;12011;47.422;15.018;2022-12-04T00:04:55;2.50;99.90
23669;DHT22;12011;47.422;15.018;2022-12-04T00:07:24;2.50;99.90
23669;DHT22;12011;47.422;15.018;2022-12-04T00:09:56;2.50;99.90
23669;DHT22;12011;47.422;15.018;2022-12-04T00:12:26;2.50;99.90
23669;DHT22;12011;47.422;15.018;2022-12-04T00:14:56;2.50;99.90
23669;DHT22;12011;47.422;15.018;2022-12-04T00:17:26;2.50;99.90
23669;DHT22;12011;47.422;15.018;2022-12-04T00:19:55;2.50;99.90
23669;DHT22;12011;47.422;15.018;2022-12-04T00:22:25;2.50;99.90
23669;DHT22;12011;47.422;15.018;2022-12-04T00:24:57;2.50;99.90
23669;DHT22;12011;47.422;15.018;2022-12-04T00:27:26;2.50;99.90
23669;DHT22;12011;47.422;15.018;2022-12-04T00:29:56;2.50;99.90
23669;DHT22;12011;47.422;15.018;2022-12-04T00:32:25;2.50;99.90
23669;DHT22;12011;47.422;15.018;2022-12-04T00:34:55;2.50;99.90
23669;DHT22;12011;47.422;15.018;2022-12-04T00:37:24;2.40;99.90
23669;DHT22;12011;47.422;15.018;2022-12-04T00:39:57;2.40;99.90
23669;DHT22;12011;47.422;15.018;2022-12-04T00:42:26;2.40;99.90
23669;DHT22;12011;47.422;15.018;2022-12-04T00:44:55;2.40;99.90
23669;DHT22;12011;47.422;15.018;2022-12-04T00:47:25;2.40;99.90
23669;DHT22;12011;47.422;15.018;2022-12-04T00:49:54;2.30;99.90
23669;DHT22;12011;47.422;15.018;2022-12-04T00:52:24;2.30;99.90
23669;DHT22;12011;47.422;15.018;2022-12-04T00:54:56;2.30;99.90
23669;DHT22;12011;47.422;15.018;2022-12-04T00:57:26;2.30;99.90
23669;DHT22;12011;47.422;15.018;2022-12-04T00:59:55;2.30;99.90
23669;DHT22;12011;47.422;15.018;2022-12-04T01:02:25;2.30;99.90
23669;DHT22;12011;47.422;15.018;2022-12-04T01:04:54;2.30;99.90
23669;DHT22;12011;47.422;15.018;2022-12-04T01:07:24;2.20;99.90
23669;DHT22;12011;47.422;15.018;2022-12-04T01:09:56;2.30;99.90
23669;DHT22;12011;47.422;15.018;2022-12-04T01:12:25;2.30;99.90
23669;DHT22;12011;47.422;15.018;2022-12-04T01:14:55;2.30;99.90
23669;DHT22;12011;47.422;15.018;2022-12-04T01:17:25;2.30;99.90
23669;DHT22;12011;47.422;15.018;2022-12-04T01:19:54;2.30;99.90
23669;DHT22;12011;47.422;15.018;2022-12-04T01:22:24;2.30;99.90
23669;DHT22;12011;47.422;15.018;2022-12-04T01:24:57;2.40;99.90
23669;DHT22;12011;47.422;15.018;2022-12-04T01:27:26;2.40;99.90
23669;DHT22;12011;47.422;15.018;2022-12-04T01:29:56;2.40;99.90
23669;DHT22;12011;47.422;15.018;2022-12-04T01:32:26;2.40;99.90
23669;DHT22;12011;47.422;15.018;2022-12-04T01:34:56;2.40;99.90
23669;DHT22;12011;47.422;15.018;2022-12-04T01:37:25;2.40;99.90
23669;DHT22;12011;47.422;15.018;2022-12-04T01:39:58;2.40;99.90
23669;DHT22;12011;47.422;15.018;2022-12-04T01:42:28;2.40;99.90
23669;DHT22;12011;47.422;15.018;2022-12-04T01:48:10;2.40;99.90
23669;DHT22;12011;47.422;15.018;2022-12-04T01:50:44;2.50;99.90
23669;DHT22;12011;47.422;15.018;2022-12-04T01:53:14;2.50;99.90
23669;DHT22;12011;47.422;15.018;2022-12-04T01:55:47;2.50;99.90
23669;DHT22;12011;47.422;15.018;2022-12-04T01:58:25;2.50;99.90
23669;DHT22;12011;47.422;15.018;2022-12-04T02:01:01;2.50;99.90
23669;DHT22;12011;47.422;15.018;2022-12-04T02:03:33;2.50;99.90
23669;DHT22;12011;47.422;15.018;2022-12-04T02:06:03;2.50;99.90
23669;DHT22;12011;47.422;15.018;2022-12-04T02:08:34;2.50;99.90
23669;DHT22;12011;47.422;15.018;2022-12-04T02:11:16;2.50;99.90
23669;DHT22;12011;47.422;15.018;2022-12-04T02:13:58;2.60;99.90
23669;DHT22;12011;47.422;15.018;2022-12-04T02:16:39;2.60;99.90
23669;DHT22;12011;47.422;15.018;2022-12-04T02:22:58;2.50;99.90
23669;DHT22;12011;47.422;15.018;2022-12-04T02:25:47;2.60;99.90
23669;DHT22;12011;47.422;15.018;2022-12-04T02:28:28;2.50;99.90
23669;DHT22;12011;47.422;15.018;2022-12-04T02:31:09;2.50;99.90
23669;DHT22;12011;47.422;15.018;2022-12-04T02:33:46;2.60;99.90
23669;DHT22;12011;47.422;15.018;2022-12-04T02:36:21;2.50;99.90
23669;DHT22;12011;47.422;15.018;2022-12-04T02:38:56;2.60;99.90
23669;DHT22;12011;47.422;15.018;2022-12-04T02:41:35;2.60;99.90
23669;DHT22;12011;47.422;15.018;2022-12-04T02:44:14;2.60;99.90
23669;DHT22;12011;47.422;15.018;2022-12-04T02:46:50;2.50;99.90
23669;DHT22;12011;47.422;15.018;2022-12-04T02:49:27;2.60;99.90
23669;DHT22;12011;47.422;15.018;2022-12-04T02:51:59;2.50;99.90
23669;DHT22;12011;47.422;15.018;2022-12-04T02:54:36;2.50;99.90
23669;DHT22;12011;47.422;15.018;2022-12-04T02:57:23;2.50;99.90
23669;DHT22;12011;47.422;15.018;2022-12-04T03:00:00;2.50;99.90
23669;DHT22;12011;47.422;15.018;2022-12-04T03:02:39;2.50;99.90
23669;DHT22;12011;47.422;15.018;2022-12-04T03:05:17;2.50;99.90
23669;DHT22;12011;47.422;15.018;2022-12-04T03:07:54;2.50;99.90
23669;DHT22;12011;47.422;15.018;2022-12-04T03:10:31;2.60;99.90
23669;DHT22;12011;47.422;15.018;2022-12-04T03:13:07;2.50;99.90
23669;DHT22;12011;47.422;15.018;2022-12-04T03:15:45;2.50;99.90
23669;DHT22;12011;47.422;15.018;2022-12-04T03:18:21;2.50;99.90
23669;DHT22;12011;47.422;15.018;2022-12-04T03:20:58;2.50;99.90
23669;DHT22;12011;47.422;15.018;2022-12-04T03:23:36;2.50;99.90
23669;DHT22;12011;47.422;15.018;2022-12-04T03:26:15;2.50;99.90
23669;DHT22;12011;47.422;15.018;2022-12-04T03:28:55;2.50;99.90
23669;DHT22;12011;47.422;15.018;2022-12-04T03:31:37;2.50;99.90
23669;DHT22;12011;47.422;15.018;2022-12-04T03:34:12;2.50;99.90
23669;DHT22;12011;47.422;15.018;2022-12-04T03:36:51;2.50;99.90
23669;DHT22;12011;47.422;15.018;2022-12-04T03:39:28;2.50;99.90
23669;DHT22;12011;47.422;15.018;2022-12-04T03:42:08;2.50;99.90
23669;DHT22;12011;47.422;15.018;2022-12-04T03:44:47;2.50;99.90
23669;DHT22;12011;47.422;15.018;2022-12-04T03:47:28;2.60;99.90
23669;DHT22;12011;47.422;15.018;2022-12-04T03:50:04;2.60;99.90
23669;DHT22;12011;47.422;15.018;2022-12-04T03:52:45;2.60;99.90
23669;DHT22;12011;47.422;15.018;2022-12-04T03:55:24;2.60;99.90
23669;DHT22;12011;47.422;15.018;2022-12-04T03:58:01;2.60;99.90
23669;DHT22;12011;47.422;15.018;2022-12-04T04:00:35;2.60;99.90
23669;DHT22;12011;47.422;15.018;2022-12-04T04:03:14;2.60;99.90
23669;DHT22;12011;47.422;15.018;2022-12-04T04:05:49;2.60;99.90
23669;DHT22;12011;47.422;15.018;2022-12-04T04:08:25;2.60;99.90
23669;DHT22;12011;47.422;15.018;2022-12-04T04:11:05;2.60;99.90
23669;DHT22;12011;47.422;15.018;2022-12-04T04:13:42;2.70;99.90
23669;DHT22;12011;47.422;15.018;2022-12-04T04:16:28;2.60;99.90
23669;DHT22;12011;47.422;15.018;2022-12-04T04:19:18;2.60;99.90
23669;DHT22;12011;47.422;15.018;2022-12-04T04:22:05;2.60;99.90
23669;DHT22;12011;47.422;15.018;2022-12-04T04:24:56;2.60;99.90
23669;DHT22;12011;47.422;15.018;2022-12-04T04:27:27;2.60;99.90
23669;DHT22;12011;47.422;15.018;2022-12-04T04:29:57;2.60;99.90
23669;DHT22;12011;47.422;15.018;2022-12-04T04:32:35;2.60;99.90
23669;DHT22;12011;47.422;15.018;2022-12-04T04:35:19;2.60;99.90
23669;DHT22;12011;47.422;15.018;2022-12-04T04:37:59;2.60;99.90
23669;DHT22;12011;47.422;15.018;2022-12-04T04:40:37;2.60;99.90
23669;DHT22;12011;47.422;15.018;2022-12-04T04:43:20;2.60;99.90
23669;DHT22;12011;47.422;15.018;2022-12-04T04:45:59;2.70;99.90
23669;DHT22;12011;47.422;15.018;2022-12-04T04:48:37;2.70;99.90
23669;DHT22;12011;47.422;15.018;2022-12-04T04:51:12;2.60;99.90
23669;DHT22;12011;47.422;15.018;2022-12-04T04:53:46;2.70;99.90
23669;DHT22;12011;47.422;15.018;2022-12-04T04:56:18;2.70;99.90
23669;DHT22;12011;47.422;15.018;2022-12-04T04:58:48;2.70;99.90
23669;DHT22;12011;47.422;15.018;2022-12-04T05:01:21;2.70;99.90
23669;DHT22;12011;47.422;15.018;2022-12-04T05:03:52;2.70;99.90
23669;DHT22;12011;47.422;15.018;2022-12-04T05:06:24;2.80;99.90
23669;DHT22;12011;47.422;15.018;2022-12-04T05:08:54;2.80;99.90
23669;DHT22;12011;47.422;15.018;2022-12-04T05:11:24;2.80;99.90
23669;DHT22;12011;47.422;15.018;2022-12-04T05:13:54;2.80;99.90
23669;DHT22;12011;47.422;15.018;2022-12-04T05:16:23;2.80;99.90
23669;DHT22;12011;47.422;15.018;2022-12-04T05:18:53;2.80;99.90
23669;DHT22;12011;47.422;15.018;2022-12-04T05:21:37;2.80;99.90
23669;DHT22;12011;47.422;15.018;2022-12-04T05:24:07;2.80;99.90
23669;DHT22;12011;47.422;15.018;2022-12-04T05:26:37;2.80;99.90
23669;DHT22;12011;47.422;15.018;2022-12-04T05:29:07;2.80;99.90
23669;DHT22;12011;47.422;15.018;2022-12-04T05:31:36;2.80;99.90
23669;DHT22;12011;47.422;15.018;2022-12-04T05:34:06;2.80;99.90
23669;DHT22;12011;47.422;15.018;2022-12-04T05:36:38;2.80;99.90
23669;DHT22;12011;47.422;15.018;2022-12-04T05:39:07;2.90;99.90
23669;DHT22;12011;47.422;15.018;2022-12-04T05:41:37;2.90;99.90
23669;DHT22;12011;47.422;15.018;2022-12-04T05:44:06;2.90;99.90
23669;DHT22;12011;47.422;15.018;2022-12-04T05:46:36;2.90;99.90
23669;DHT22;12011;47.422;15.018;2022-12-04T05:49:05;2.90;99.90
23669;DHT22;12011;47.422;15.018;2022-12-04T05:51:37;2.90;99.90
23669;DHT22;12011;47.422;15.018;2022-12-04T05:54:07;2.90;99.90
23669;DHT22;12011;47.422;15.018;2022-12-04T05:56:36;2.90;99.90
23669;DHT22;12011;47.422;15.018;2022-12-04T05:59:06;2.80;99.90
23669;DHT22;12011;47.422;15.018;2022-12-04T06:01:35;2.80;99.90
23669;DHT22;12011;47.422;15.018;2022-12-04T06:04:06;2.80;99.90
23669;DHT22;12011;47.422;15.018;2022-12-04T06:06:38;3.20;99.90
23669;DHT22;12011;47.422;15.018;2022-12-04T06:09:08;2.80;99.90
23669;DHT22;12011;47.422;15.018;2022-12-04T06:11:40;2.80;99.90
23669;DHT22;12011;47.422;15.018;2022-12-04T06:14:12;2.80;99.90
23669;DHT22;12011;47.422;15.018;2022-12-04T06:16:44;2.80;99.90
23669;DHT22;12011;47.422;15.018;2022-12-04T06:19:16;2.80;99.90
23669;DHT22;12011;47.422;15.018;2022-12-04T06:21:51;2.80;99.90
23669;DHT22;12011;47.422;15.018;2022-12-04T06:24:23;2.80;99.90
23669;DHT22;12011;47.422;15.018;2022-12-04T06:26:56;2.80;99.90
23669;DHT22;12011;47.422;15.018;2022-12-04T06:29:26;2.70;99.90
23669;DHT22;12011;47.422;15.018;2022-12-04T06:31:55;2.80;99.90
23669;DHT22;12011;47.422;15.018;2022-12-04T06:34:25;2.80;99.90
23669;DHT22;12011;47.422;15.018;2022-12-04T06:36:57;2.80;99.90
23669;DHT22;12011;47.422;15.018;2022-12-04T06:39:26;2.80;99.90
23669;DHT22;12011;47.422;15.018;2022-12-04T06:41:56;2.80;99.90
23669;DHT22;12011;47.422;15.018;2022-12-04T06:44:25;2.80;99.90
23669;DHT22;12011;47.422;15.018;2022-12-04T06:46:55;2.90;99.90
23669;DHT22;12011;47.422;15.018;2022-12-04T06:49:24;2.80;99.90
23669;DHT22;12011;47.422;15.018;2022-12-04T06:51:56;2.80;99.90
23669;DHT22;12011;47.422;15.018;2022-12-04T06:54:26;2.80;99.90
23669;DHT22;12011;47.422;15.018;2022-12-04T06:56:55;2.80;99.90
23669;DHT22;12011;47.422;15.018;2022-12-04T06:59:25;2.80;99.90
23669;DHT22;12011;47.422;15.018;2022-12-04T07:01:55;2.80;99.90
23669;DHT22;12011;47.422;15.018;2022-12-04T07:04:24;2.80;99.90
23669;DHT22;12011;47.422;15.018;2022-12-04T07:06:56;2.80;99.90
23669;DHT22;12011;47.422;15.018;2022-12-04T07:09:26;2.90;99.90
23669;DHT22;12011;47.422;15.018;2022-12-04T07:11:55;2.90;99.90
23669;DHT22;12011;47.422;15.018;2022-12-04T07:14:25;2.90;99.90
23669;DHT22;12011;47.422;15.018;2022-12-04T07:16:55;3.00;99.90
23669;DHT22;12011;47.422;15.018;2022-12-04T07:19:24;3.00;99.90
23669;DHT22;12011;47.422;15.018;2022-12-04T07:21:53;3.10;99.90
23669;DHT22;12011;47.422;15.018;2022-12-04T07:24:26;3.10;99.90
23669;DHT22;12011;47.422;15.018;2022-12-04T07:26:55;3.00;99.90
23669;DHT22;12011;47.422;15.018;2022-12-04T07:29:25;3.00;99.90
23669;DHT22;12011;47.422;15.018;2022-12-04T07:31:54;3.00;99.90
23669;DHT22;12011;47.422;15.018;2022-12-04T07:34:24;3.10;99.90
23669;DHT22;12011;47.422;15.018;2022-12-04T07:36:53;3.10;99.90
23669;DHT22;12011;47.422;15.018;2022-12-04T07:39:25;3.00;99.90
23669;DHT22;12011;47.422;15.018;2022-12-04T07:41:55;3.00;99.90
23669;DHT22;12011;47.422;15.018;2022-12-04T07:44:24;3.00;99.90
23669;DHT22;12011;47.422;15.018;2022-12-04T07:46:54;3.00;99.90
23669;DHT22;12011;47.422;15.018;2022-12-04T07:49:23;3.10;99.90
23669;DHT22;12011;47.422;15.018;2022-12-04T07:51:53;3.10;99.90
23669;DHT22;12011;47.422;15.018;2022-12-04T07:54:25;3.10;99.90
23669;DHT22;12011;47.422;15.018;2022-12-04T07:56:55;3.10;99.90
23669;DHT22;12011;47.422;15.018;2022-12-04T07:59:24;3.10;99.90
23669;DHT22;12011;47.422;15.018;2022-12-04T08:01:54;3.20;99.90
23669;DHT22;12011;47.422;15.018;2022-12-04T08:04:23;3.20;99.90
23669;DHT22;12011;47.422;15.018;2022-12-04T08:06:56;3.20;99.90
23669;DHT22;12011;47.422;15.018;2022-12-04T08:09:28;3.20;99.90
23669;DHT22;12011;47.422;15.018;2022-12-04T08:11:57;3.20;99.90
23669;DHT22;12011;47.422;15.018;2022-12-04T08:14:28;3.30;99.90
23669;DHT22;12011;47.422;15.018;2022-12-04T08:16:58;3.30;99.90
23669;DHT22;12011;47.422;15.018;2022-12-04T08:19:28;3.30;99.90
23669;DHT22;12011;47.422;15.018;2022-12-04T08:21:57;3.30;99.90
23669;DHT22;12011;47.422;15.018;2022-12-04T08:24:29;3.30;99.90
23669;DHT22;12011;47.422;15.018;2022-12-04T08:26:59;3.40;99.90
23669;DHT22;12011;47.422;15.018;2022-12-04T08:29:28;3.40;99.90
23669;DHT22;12011;47.422;15.018;2022-12-04T08:31:58;3.40;99.90
23669;DHT22;12011;47.422;15.018;2022-12-04T08:34:28;3.40;99.90
23669;DHT22;12011;47.422;15.018;2022-12-04T08:36:58;3.50;99.90
23669;DHT22;12011;47.422;15.018;2022-12-04T08:39:30;3.50;99.90
23669;DHT22;12011;47.422;15.018;2022-12-04T08:42:00;3.60;99.90
23669;DHT22;12011;47.422;15.018;2022-12-04T08:44:29;3.60;99.90
23669;DHT22;12011;47.422;15.018;2022-12-04T08:46:59;3.60;99.90
23669;DHT22;12011;47.422;15.018;2022-12-04T08:49:28;3.70;99.90
23669;DHT22;12011;47.422;15.018;2022-12-04T08:51:58;3.70;99.90
23669;DHT22;12011;47.422;15.018;2022-12-04T08:54:30;3.60;99.90
23669;DHT22;12011;47.422;15.018;2022-12-04T08:56:59;3.70;99.90
23669;DHT22;12011;47.422;15.018;2022-12-04T08:59:29;3.70;99.90
23669;DHT22;12011;47.422;15.018;2022-12-04T09:01:59;3.70;99.90
23669;DHT22;12011;47.422;15.018;2022-12-04T09:04:28;3.60;99.90
23669;DHT22;12011;47.422;15.018;2022-12-04T09:06:58;3.60;99.90
23669;DHT22;12011;47.422;15.018;2022-12-04T09:09:30;3.70;99.90
23669;DHT22;12011;47.422;15.018;2022-12-04T09:12:00;3.70;99.90
23669;DHT22;12011;47.422;15.018;2022-12-04T09:14:29;3.70;99.90
23669;DHT22;12011;47.422;15.018;2022-12-04T09:16:59;3.70;99.90
23669;DHT22;12011;47.422;15.018;2022-12-04T09:19:28;3.70;99.90
23669;DHT22;12011;47.422;15.018;2022-12-04T09:22:00;3.70;99.90
23669;DHT22;12011;47.422;15.018;2022-12-04T09:24:32;3.70;99.90
23669;DHT22;12011;47.422;15.018;2022-12-04T09:27:02;3.70;99.90
23669;DHT22;12011;47.422;15.018;2022-12-04T09:29:32;3.70;99.90
23669;DHT22;12011;47.422;15.018;2022-12-04T09:32:02;3.70;99.90
23669;DHT22;12011;47.422;15.018;2022-12-04T09:34:33;3.80;99.90
23669;DHT22;12011;47.422;15.018;2022-12-04T09:37:04;3.80;99.90
23669;DHT22;12011;47.422;15.018;2022-12-04T09:39:37;3.80;99.90
23669;DHT22;12011;47.422;15.018;2022-12-04T09:42:31;3.90;99.90
23669;DHT22;12011;47.422;15.018;2022-12-04T09:45:12;3.90;99.90
23669;DHT22;12011;47.422;15.018;2022-12-04T09:47:45;4.00;99.90
23669;DHT22;12011;47.422;15.018;2022-12-04T09:50:20;4.00;99.90
23669;DHT22;12011;47.422;15.018;2022-12-04T09:52:57;4.00;99.90
23669;DHT22;12011;47.422;15.018;2022-12-04T09:55:35;4.10;99.90
23669;DHT22;12011;47.422;15.018;2022-12-04T09:58:13;4.10;99.90
23669;DHT22;12011;47.422;15.018;2022-12-04T10:00:49;4.20;99.90
23669;DHT22;12011;47.422;15.018;2022-12-04T10:03:30;4.10;99.90
23669;DHT22;12011;47.422;15.018;2022-12-04T10:06:06;4.20;99.90
23669;DHT22;12011;47.422;15.018;2022-12-04T10:08:41;4.20;99.90
23669;DHT22;12011;47.422;15.018;2022-12-04T10:11:22;4.20;99.90
23669;DHT22;12011;47.422;15.018;2022-12-04T10:14:09;4.20;99.90
23669;DHT22;12011;47.422;15.018;2022-12-04T10:16:59;4.20;99.90
23669;DHT22;12011;47.422;15.018;2022-12-04T10:19:48;4.10;99.90
23669;DHT22;12011;47.422;15.018;2022-12-04T10:22:26;4.10;99.90
23669;DHT22;12011;47.422;15.018;2022-12-04T10:25:04;4.10;99.90
23669;DHT22;12011;47.422;15.018;2022-12-04T10:27:49;4.10;99.90
23669;DHT22;12011;47.422;15.018;2022-12-04T10:30:25;4.10;99.90
23669;DHT22;12011;47.422;15.018;2022-12-04T10:32:59;4.00;99.90
23669;DHT22;12011;47.422;15.018;2022-12-04T10:35:34;4.00;99.90
23669;DHT22;12011;47.422;15.018;2022-12-04T10:38:14;4.00;99.90
23669;DHT22;12011;47.422;15.018;2022-12-04T10:40:58;4.00;99.90
23669;DHT22;12011;47.422;15.018;2022-12-04T10:43:40;4.00;99.90
23669;DHT22;12011;47.422;15.018;2022-12-04T10:46:14;4.00;99.90
23669;DHT22;12011;47.422;15.018;2022-12-04T10:48:50;4.00;99.90
23669;DHT22;12011;47.422;15.018;2022-12-04T10:51:20;4.00;99.90
23669;DHT22;12011;47.422;15.018;2022-12-04T10:53:51;4.00;99.90
23669;DHT22;12011;47.422;15.018;2022-12-04T10:56:23;4.00;99.90
23669;DHT22;12011;47.422;15.018;2022-12-04T10:59:02;4.00;99.90
23669;DHT22;12011;47.422;15.018;2022-12-04T11:01:34;4.00;99.90
23669;DHT22;12011;47.422;15.018;2022-12-04T11:04:08;4.10;99.90
23669;DHT22;12011;47.422;15.018;2022-12-04T11:06:47;4.10;99.90
23669;DHT22;12011;47.422;15.018;2022-12-04T11:09:23;4.10;99.90
23669;DHT22;12011;47.422;15.018;2022-12-04T11:12:05;4.10;99.90
23669;DHT22;12011;47.422;15.018;2022-12-04T11:14:39;4.10;99.90
23669;DHT22;12011;47.422;15.018;2022-12-04T11:17:16;4.20;99.90
23669;DHT22;12011;47.422;15.018;2022-12-04T11:19:57;4.20;99.90
23669;DHT22;12011;47.422;15.018;2022-12-04T11:22:28;4.20;99.90
23669;DHT22;12011;47.422;15.018;2022-12-04T11:24:59;4.20;99.90
23669;DHT22;12011;47.422;15.018;2022-12-04T11:27:30;4.30;99.90
23669;DHT22;12011;47.422;15.018;2022-12-04T11:30:09;4.30;99.90
23669;DHT22;12011;47.422;15.018;2022-12-04T11:32:44;4.30;99.90
23669;DHT22;12011;47.422;15.018;2022-12-04T11:35:16;4.30;99.90
23669;DHT22;12011;47.422;15.018;2022-12-04T11:37:56;4.30;99.90
23669;DHT22;12011;47.422;15.018;2022-12-04T11:40:27;4.30;99.90
23669;DHT22;12011;47.422;15.018;2022-12-04T11:43:02;4.40;99.90
23669;DHT22;12011;47.422;15.018;2022-12-04T11:45:35;4.30;99.90
23669;DHT22;12011;47.422;15.018;2022-12-04T11:48:15;4.40;99.90
23669;DHT22;12011;47.422;15.018;2022-12-04T11:50:53;4.40;99.90
23669;DHT22;12011;47.422;15.018;2022-12-04T11:53:41;4.40;99.90
23669;DHT22;12011;47.422;15.018;2022-12-04T11:56:20;4.40;99.90
23669;DHT22;12011;47.422;15.018;2022-12-04T11:59:18;4.40;99.90
23669;DHT22;12011;47.422;15.018;2022-12-04T12:02:04;4.50;99.90
23669;DHT22;12011;47.422;15.018;2022-12-04T12:05:07;4.50;99.90
23669;DHT22;12011;47.422;15.018;2022-12-04T12:07:55;4.50;99.90
23669;DHT22;12011;47.422;15.018;2022-12-04T12:10:35;4.60;99.90
23669;DHT22;12011;47.422;15.018;2022-12-04T12:13:18;4.60;99.90
23669;DHT22;12011;47.422;15.018;2022-12-04T12:16:04;4.50;99.90
23669;DHT22;12011;47.422;15.018;2022-12-04T12:18:58;4.60;99.90
23669;DHT22;12011;47.422;15.018;2022-12-04T12:21:45;4.50;99.90
23669;DHT22;12011;47.422;15.018;2022-12-04T12:24:24;4.60;99.90
23669;DHT22;12011;47.422;15.018;2022-12-04T12:27:06;4.60;99.90
23669;DHT22;12011;47.422;15.018;2022-12-04T12:29:59;4.60;99.90
23669;DHT22;12011;47.422;15.018;2022-12-04T12:32:49;4.60;99.90
23669;DHT22;12011;47.422;15.018;2022-12-04T12:35:31;4.60;99.90
23669;DHT22;12011;47.422;15.018;2022-12-04T12:38:08;4.70;99.90
23669;DHT22;12011;47.422;15.018;2022-12-04T12:40:43;4.70;99.90
23669;DHT22;12011;47.422;15.018;2022-12-04T12:43:20;4.70;99.90
23669;DHT22;12011;47.422;15.018;2022-12-04T12:45:57;4.70;99.90
23669;DHT22;12011;47.422;15.018;2022-12-04T12:48:38;4.70;99.90
23669;DHT22;12011;47.422;15.018;2022-12-04T12:51:29;4.70;99.90
23669;DHT22;12011;47.422;15.018;2022-12-04T12:54:12;4.70;99.90
23669;DHT22;12011;47.422;15.018;2022-12-04T12:56:49;4.70;99.90
23669;DHT22;12011;47.422;15.018;2022-12-04T12:59:25;4.80;99.90
23669;DHT22;12011;47.422;15.018;2022-12-04T13:02:04;4.80;99.90
23669;DHT22;12011;47.422;15.018;2022-12-04T13:04:40;4.90;99.90
23669;DHT22;12011;47.422;15.018;2022-12-04T13:07:26;4.90;99.90
23669;DHT22;12011;47.422;15.018;2022-12-04T13:10:04;5.00;99.90
23669;DHT22;12011;47.422;15.018;2022-12-04T13:12:45;5.10;99.90
23669;DHT22;12011;47.422;15.018;2022-12-04T13:15:21;5.00;99.90
23669;DHT22;12011;47.422;15.018;2022-12-04T13:17:55;5.10;99.90
23669;DHT22;12011;47.422;15.018;2022-12-04T13:20:29;5.10;99.90
23669;DHT22;12011;47.422;15.018;2022-12-04T13:23:19;5.10;99.90
23669;DHT22;12011;47.422;15.018;2022-12-04T13:26:05;5.10;99.90
23669;DHT22;12011;47.422;15.018;2022-12-04T13:28:48;5.10;99.90
23669;DHT22;12011;47.422;15.018;2022-12-04T13:31:31;5.00;99.90
23669;DHT22;12011;47.422;15.018;2022-12-04T13:34:28;5.00;99.90
23669;DHT22;12011;47.422;15.018;2022-12-04T13:37:23;5.00;99.90
23669;DHT22;12011;47.422;15.018;2022-12-04T13:43:32;5.00;99.90
23669;DHT22;12011;47.422;15.018;2022-12-04T13:46:06;4.90;99.90
23669;DHT22;12011;47.422;15.018;2022-12-04T13:48:38;4.90;99.90
23669;DHT22;12011;47.422;15.018;2022-12-04T13:51:32;4.90;99.90
23669;DHT22;12011;47.422;15.018;2022-12-04T13:54:20;4.90;99.90
23669;DHT22;12011;47.422;15.018;2022-12-04T13:57:21;4.80;99.90
23669;DHT22;12011;47.422;15.018;2022-12-04T14:00:02;4.80;99.90
23669;DHT22;12011;47.422;15.018;2022-12-04T14:02:49;4.70;99.90
23669;DHT22;12011;47.422;15.018;2022-12-04T14:05:27;4.60;99.90
23669;DHT22;12011;47.422;15.018;2022-12-04T14:08:05;4.60;99.90
23669;DHT22;12011;47.422;15.018;2022-12-04T14:10:37;4.70;99.90
23669;DHT22;12011;47.422;15.018;2022-12-04T14:13:18;4.70;99.90
23669;DHT22;12011;47.422;15.018;2022-12-04T14:16:02;4.70;99.90
23669;DHT22;12011;47.422;15.018;2022-12-04T14:18:33;4.80;99.90
23669;DHT22;12011;47.422;15.018;2022-12-04T14:21:05;4.80;99.90
23669;DHT22;12011;47.422;15.018;2022-12-04T14:23:37;4.80;99.90
23669;DHT22;12011;47.422;15.018;2022-12-04T14:26:23;4.80;99.90
23669;DHT22;12011;47.422;15.018;2022-12-04T14:29:33;4.80;99.90
23669;DHT22;12011;47.422;15.018;2022-12-04T14:32:16;4.80;99.90
23669;DHT22;12011;47.422;15.018;2022-12-04T14:34:50;4.80;99.90
23669;DHT22;12011;47.422;15.018;2022-12-04T14:37:26;4.70;99.90
23669;DHT22;12011;47.422;15.018;2022-12-04T14:39:58;4.70;99.90
23669;DHT22;12011;47.422;15.018;2022-12-04T14:42:36;4.60;99.90
23669;DHT22;12011;47.422;15.018;2022-12-04T14:45:22;4.60;99.90
23669;DHT22;12011;47.422;15.018;2022-12-04T14:48:17;4.60;99.90
23669;DHT22;12011;47.422;15.018;2022-12-04T14:51:04;4.50;99.90
23669;DHT22;12011;47.422;15.018;2022-12-04T14:53:44;4.40;99.90
23669;DHT22;12011;47.422;15.018;2022-12-04T14:56:26;4.30;99.90
23669;DHT22;12011;47.422;15.018;2022-12-04T14:59:16;4.30;99.90
23669;DHT22;12011;47.422;15.018;2022-12-04T15:01:54;4.20;99.90
23669;DHT22;12011;47.422;15.018;2022-12-04T15:04:28;4.20;99.90
23669;DHT22;12011;47.422;15.018;2022-12-04T15:07:00;4.10;99.90
23669;DHT22;12011;47.422;15.018;2022-12-04T15:09:30;4.10;99.90
23669;DHT22;12011;47.422;15.018;2022-12-04T15:12:16;4.10;99.90
23669;DHT22;12011;47.422;15.018;2022-12-04T15:15:11;4.10;99.90
23669;DHT22;12011;47.422;15.018;2022-12-04T15:18:01;4.10;99.90
23669;DHT22;12011;47.422;15.018;2022-12-04T15:20:36;4.00;99.90
23669;DHT22;12011;47.422;15.018;2022-12-04T15:23:13;4.10;99.90
23669;DHT22;12011;47.422;15.018;2022-12-04T15:25:46;4.00;99.90
23669;DHT22;12011;47.422;15.018;2022-12-04T15:28:22;4.00;99.90
23669;DHT22;12011;47.422;15.018;2022-12-04T15:30:56;4.00;99.90
23669;DHT22;12011;47.422;15.018;2022-12-04T15:33:34;4.00;99.90
23669;DHT22;12011;47.422;15.018;2022-12-04T15:36:08;4.00;99.90
23669;DHT22;12011;47.422;15.018;2022-12-04T15:38:42;3.90;99.90
23669;DHT22;12011;47.422;15.018;2022-12-04T15:41:38;4.00;99.90
23669;DHT22;12011;47.422;15.018;2022-12-04T15:44:26;4.00;99.90
23669;DHT22;12011;47.422;15.018;2022-12-04T15:47:00;4.10;99.90
23669;DHT22;12011;47.422;15.018;2022-12-04T15:49:34;4.00;99.90
23669;DHT22;12011;47.422;15.018;2022-12-04T15:52:06;4.10;99.90
23669;DHT22;12011;47.422;15.018;2022-12-04T15:54:45;4.00;99.90
23669;DHT22;12011;47.422;15.018;2022-12-04T15:57:25;4.00;99.90
23669;DHT22;12011;47.422;15.018;2022-12-04T15:59:58;4.00;99.90
23669;DHT22;12011;47.422;15.018;2022-12-04T16:02:33;4.10;99.90
23669;DHT22;12011;47.422;15.018;2022-12-04T16:05:21;4.10;99.90
23669;DHT22;12011;47.422;15.018;2022-12-04T16:07:59;4.10;99.90
23669;DHT22;12011;47.422;15.018;2022-12-04T16:10:32;4.10;99.90
23669;DHT22;12011;47.422;15.018;2022-12-04T16:13:04;4.10;99.90
23669;DHT22;12011;47.422;15.018;2022-12-04T16:15:37;4.10;99.90
23669;DHT22;12011;47.422;15.018;2022-12-04T16:18:12;4.10;99.90
23669;DHT22;12011;47.422;15.018;2022-12-04T16:20:45;4.10;99.90
23669;DHT22;12011;47.422;15.018;2022-12-04T16:23:15;4.10;99.90
23669;DHT22;12011;47.422;15.018;2022-12-04T16:25:45;4.10;99.90
23669;DHT22;12011;47.422;15.018;2022-12-04T16:28:14;4.00;99.90
23669;DHT22;12011;47.422;15.018;2022-12-04T16:30:44;4.00;99.90
23669;DHT22;12011;47.422;15.018;2022-12-04T16:33:14;4.00;99.90